Terminal Aerodrome Forecast
Issued by NWS Glasgow, MT

Home | Current Version | Previous Version | Text Only | Print | Product List | Glossary On
Versions: 1 2 3 4 5 6 7 8 9 10 11 12 13 14 15
000
FTUS45 KGGW 021100
TAFGGW
TAF
KGGW 021129Z 0212/0312 13013KT P6SM BKN150 WS010/18030KT
     FM021800 27009KT P6SM BKN070
     FM022100 33020G30KT P6SM VCSH OVC020
     FM030000 34022KT P6SM OVC040=

USA.gov is the U.S. government's official web portal to all federal, state and local government web resources and services.